Terminal Aerodrome Forecast
Issued by NWS Portland, OR

Home | Current Version | Previous Version | Text Only | Print | Product List | Glossary On
Versions: 1 2 3 4 5 6 7 8 9 10 11 12 13 14 15 16 17 18 19 20
000
FTUS46 KPQR 260527
TAFTTD
TAF
KTTD 260527Z 2606/2706 10007KT P6SM -SHRA BKN012 OVC025
     FM261200 20006KT 4SM -RA BR BKN008 OVC015
     FM262000 24007KT P6SM -SHRA OVC025=

USA.gov is the U.S. government's official web portal to all federal, state and local government web resources and services.